createdAt,value
2023-04-29T00:01:58.996Z,-2.85
2023-04-29T00:04:28.797Z,-2.92
2023-04-29T00:06:56.845Z,-2.77
2023-04-29T00:09:24.737Z,-3.20
2023-04-29T00:11:52.820Z,-3.41
2023-04-29T00:14:21.093Z,-3.08
2023-04-29T00:16:49.182Z,-3.07
2023-04-29T00:19:18.462Z,-3.08
2023-04-29T00:21:47.847Z,-3.08
2023-04-29T00:24:15.841Z,-3.05
2023-04-29T00:26:44.152Z,-3.01
2023-04-29T00:29:12.056Z,-3.13
2023-04-29T00:31:40.349Z,-3.58
2023-04-29T00:34:08.582Z,-3.28
2023-04-29T00:36:36.747Z,-3.21
2023-04-29T00:39:06.200Z,-3.26
2023-04-29T00:41:34.395Z,-3.38
2023-04-29T00:44:02.497Z,-3.52
2023-04-29T00:46:30.572Z,-3.42
2023-04-29T00:48:59.011Z,-3.47
2023-04-29T00:51:28.243Z,-3.72
2023-04-29T00:53:56.624Z,-3.50
2023-04-29T00:56:26.179Z,-3.48
2023-04-29T00:58:54.980Z,-3.67
2023-04-29T01:01:23.429Z,-3.35
2023-04-29T01:03:52.467Z,-3.24
2023-04-29T01:06:30.428Z,-3.21
2023-04-29T01:09:16.376Z,-3.23
2023-04-29T01:12:01.872Z,-3.33
2023-04-29T01:14:30.199Z,-3.23
2023-04-29T01:17:01.538Z,-3.33
2023-04-29T01:19:42.315Z,-3.41
2023-04-29T01:22:10.466Z,-3.39
2023-04-29T01:24:40.072Z,-3.36
2023-04-29T01:27:19.822Z,-3.57
2023-04-29T01:29:57.450Z,-3.62
2023-04-29T01:32:34.540Z,-3.50
2023-04-29T01:35:12.506Z,-3.98
2023-04-29T01:37:50.724Z,-3.58
2023-04-29T01:40:24.118Z,-3.70
2023-04-29T01:43:01.700Z,-3.76
2023-04-29T01:45:31.740Z,-3.70
2023-04-29T01:48:01.954Z,-3.78
2023-04-29T01:50:30.583Z,-3.84
2023-04-29T01:52:58.601Z,-3.79
2023-04-29T01:55:28.033Z,-3.73
2023-04-29T01:57:56.175Z,-3.82
2023-04-29T02:00:25.366Z,-3.75
2023-04-29T02:02:54.977Z,-3.65
2023-04-29T02:05:23.125Z,-3.70
2023-04-29T02:07:51.149Z,-3.81
2023-04-29T02:10:19.228Z,-3.82
2023-04-29T02:12:48.829Z,-3.77
2023-04-29T02:15:17.484Z,-3.90
2023-04-29T02:17:45.616Z,-3.89
2023-04-29T02:20:14.459Z,-3.92
2023-04-29T02:22:42.753Z,-3.99
2023-04-29T02:25:11.694Z,-4.00
2023-04-29T02:27:42.526Z,-3.88
2023-04-29T02:30:12.401Z,-3.95
2023-04-29T02:32:40.601Z,-4.07
2023-04-29T02:35:09.584Z,-4.00
2023-04-29T02:37:37.539Z,-3.93
2023-04-29T02:40:06.273Z,-3.91
2023-04-29T02:42:34.433Z,-3.75
2023-04-29T02:45:02.321Z,-3.88
2023-04-29T02:47:31.664Z,-3.99
2023-04-29T02:49:59.877Z,-3.89
2023-04-29T02:52:28.047Z,-3.77
2023-04-29T02:54:59.130Z,-3.78
2023-04-29T02:57:27.235Z,-3.69
2023-04-29T02:59:55.112Z,-3.62
2023-04-29T03:02:23.164Z,-3.65
2023-04-29T03:04:52.924Z,-3.72
2023-04-29T03:07:20.960Z,-3.79
2023-04-29T03:09:48.907Z,-3.79
2023-04-29T03:12:17.810Z,-3.75
2023-04-29T03:14:46.345Z,-3.75
2023-04-29T03:17:14.509Z,-3.79
2023-04-29T03:19:42.773Z,-3.52
2023-04-29T03:22:12.337Z,-3.37
2023-04-29T03:24:40.308Z,-3.23
2023-04-29T03:27:08.314Z,-3.24
2023-04-29T03:29:36.449Z,-3.13
2023-04-29T03:32:04.366Z,-3.11
2023-04-29T03:34:32.412Z,-3.08
2023-04-29T03:37:01.340Z,-2.97
2023-04-29T03:39:32.613Z,-2.89
2023-04-29T03:42:01.515Z,-3.07
2023-04-29T03:44:30.205Z,-2.73
2023-04-29T03:46:58.125Z,-2.63
2023-04-29T03:49:26.550Z,-2.62
2023-04-29T03:51:54.854Z,-2.59
2023-04-29T03:54:22.911Z,-2.53
2023-04-29T03:56:52.457Z,-2.58
2023-04-29T03:59:20.602Z,-2.35
2023-04-29T04:01:48.541Z,-2.26
2023-04-29T04:04:16.911Z,-2.27
2023-04-29T04:06:51.357Z,-2.23
2023-04-29T04:09:19.546Z,-2.25
2023-04-29T04:11:48.074Z,-2.41
2023-04-29T04:14:17.520Z,-2.01
2023-04-29T04:16:45.713Z,-1.92
2023-04-29T04:19:14.171Z,-1.82
2023-04-29T04:21:42.501Z,-1.54
2023-04-29T04:24:10.799Z,-1.54
2023-04-29T04:26:38.769Z,-1.08
2023-04-29T04:29:06.998Z,-0.84
2023-04-29T04:31:37.107Z,-0.65
2023-04-29T04:34:05.132Z,-0.49
2023-04-29T04:36:33.691Z,-0.39
2023-04-29T04:39:01.784Z,-0.45
2023-04-29T04:41:31.589Z,-0.16
2023-04-29T04:43:59.577Z,0.08
2023-04-29T04:46:27.612Z,0.02
2023-04-29T04:48:56.899Z,0.56
2023-04-29T04:51:24.790Z,0.95
2023-04-29T04:53:52.944Z,1.50
2023-04-29T04:56:21.320Z,1.89
2023-04-29T04:58:49.366Z,2.20
2023-04-29T05:01:17.486Z,2.46
2023-04-29T05:03:45.670Z,2.72
2023-04-29T05:06:15.709Z,2.88
2023-04-29T05:08:43.624Z,3.09
2023-04-29T05:11:18.150Z,3.27
2023-04-29T05:13:46.332Z,3.48
2023-04-29T05:16:14.783Z,3.43
2023-04-29T05:18:45.171Z,3.82
2023-04-29T05:21:12.970Z,4.03
2023-04-29T05:23:43.390Z,4.02
2023-04-29T05:26:11.037Z,4.29
2023-04-29T05:28:39.025Z,4.59
2023-04-29T05:31:07.467Z,4.67
2023-04-29T05:33:35.448Z,4.81
2023-04-29T05:36:03.477Z,4.88
2023-04-29T05:38:31.506Z,5.16
2023-04-29T05:41:00.874Z,5.29
2023-04-29T05:43:29.037Z,5.36
2023-04-29T05:45:57.325Z,5.46
2023-04-29T05:48:25.473Z,5.56
2023-04-29T05:50:54.113Z,5.52
2023-04-29T05:53:22.462Z,5.49
2023-04-29T05:55:51.493Z,5.66
2023-04-29T05:58:20.962Z,5.86
2023-04-29T06:00:49.518Z,5.82
2023-04-29T06:03:18.330Z,5.99
2023-04-29T06:05:46.780Z,6.12
2023-04-29T06:08:15.285Z,6.34
2023-04-29T06:10:43.334Z,6.64
2023-04-29T06:13:11.439Z,6.59
2023-04-29T06:15:40.880Z,6.66
2023-04-29T06:18:08.830Z,6.83
2023-04-29T06:20:37.601Z,6.63
2023-04-29T06:23:07.968Z,6.48
2023-04-29T06:25:35.954Z,6.61
2023-04-29T06:28:04.566Z,6.70
2023-04-29T06:30:32.563Z,6.53
2023-04-29T06:33:01.906Z,6.64
2023-04-29T06:35:30.097Z,6.91
2023-04-29T06:37:57.976Z,7.26
2023-04-29T06:40:26.131Z,7.45
2023-04-29T06:42:54.103Z,7.67
2023-04-29T06:45:22.924Z,7.89
2023-04-29T06:47:51.017Z,8.16
2023-04-29T06:50:20.549Z,8.14
2023-04-29T06:52:49.319Z,8.48
2023-04-29T06:55:18.014Z,8.70
2023-04-29T06:57:46.080Z,8.89
2023-04-29T07:00:15.978Z,8.76
2023-04-29T07:02:44.035Z,8.86
2023-04-29T07:05:12.667Z,9.02
2023-04-29T07:07:43.141Z,9.26
2023-04-29T07:10:11.399Z,9.20
2023-04-29T07:12:39.520Z,9.17
2023-04-29T07:15:08.610Z,9.42
2023-04-29T07:17:36.709Z,9.49
2023-04-29T07:20:05.649Z,9.61
2023-04-29T07:22:33.574Z,9.86
2023-04-29T07:25:02.992Z,9.94
2023-04-29T07:27:31.534Z,10.27
2023-04-29T07:30:01.288Z,10.28
2023-04-29T07:32:29.257Z,10.67
2023-04-29T07:34:57.585Z,10.55
2023-04-29T07:37:25.659Z,10.86
2023-04-29T07:39:53.640Z,10.68
2023-04-29T07:42:22.985Z,10.78
2023-04-29T07:44:51.172Z,10.71
2023-04-29T07:47:19.390Z,10.86
2023-04-29T07:49:47.496Z,10.90
2023-04-29T07:52:15.635Z,11.15
2023-04-29T07:54:43.667Z,11.41
2023-04-29T07:57:11.925Z,11.24
2023-04-29T07:59:41.321Z,10.86
2023-04-29T08:02:09.210Z,11.03
2023-04-29T08:04:41.848Z,11.40
2023-04-29T08:07:10.746Z,11.70
2023-04-29T08:09:38.727Z,11.84
2023-04-29T08:12:07.340Z,11.78
2023-04-29T08:14:35.560Z,11.70
2023-04-29T08:17:04.923Z,11.80
2023-04-29T08:19:33.062Z,11.95
2023-04-29T08:22:04.232Z,11.84
2023-04-29T08:24:33.790Z,11.48
2023-04-29T08:27:01.949Z,11.08
2023-04-29T08:29:33.641Z,10.75
2023-04-29T08:32:02.384Z,10.43
2023-04-29T08:34:33.581Z,10.28
2023-04-29T08:37:04.138Z,9.72
2023-04-29T08:39:32.454Z,9.59
2023-04-29T08:42:00.680Z,9.76
2023-04-29T08:44:32.741Z,9.90
2023-04-29T08:47:01.560Z,10.57
2023-04-29T08:49:32.567Z,11.08
2023-04-29T08:52:00.680Z,11.14
2023-04-29T08:54:29.182Z,11.31
2023-04-29T08:56:59.385Z,11.04
2023-04-29T08:59:29.671Z,11.06
2023-04-29T09:01:58.611Z,11.50
2023-04-29T09:04:39.168Z,11.63
2023-04-29T09:07:08.371Z,11.51
2023-04-29T09:09:36.796Z,11.61
2023-04-29T09:12:04.794Z,11.64
2023-04-29T09:14:34.642Z,11.08
2023-04-29T09:17:02.668Z,10.81
2023-04-29T09:19:32.074Z,10.98
2023-04-29T09:22:02.190Z,10.98
2023-04-29T09:24:31.728Z,11.00
2023-04-29T09:26:59.992Z,10.48
2023-04-29T09:30:01.421Z,10.72
2023-04-29T09:32:29.316Z,10.50
2023-04-29T09:34:57.417Z,10.49
2023-04-29T09:37:28.233Z,10.69
2023-04-29T09:39:56.541Z,10.95
2023-04-29T09:42:24.582Z,11.45
2023-04-29T09:44:54.714Z,11.52
2023-04-29T09:47:31.799Z,11.41
2023-04-29T09:50:14.309Z,11.53
2023-04-29T09:52:43.676Z,11.21
2023-04-29T09:55:12.759Z,10.83
2023-04-29T09:57:44.874Z,10.72
2023-04-29T10:00:14.716Z,10.44
2023-04-29T10:02:43.982Z,10.40
2023-04-29T10:05:13.368Z,10.27
2023-04-29T10:07:43.379Z,10.51
2023-04-29T10:10:13.795Z,10.62
2023-04-29T10:12:42.317Z,11.08
2023-04-29T10:15:19.098Z,11.22
2023-04-29T10:17:50.625Z,11.40
2023-04-29T10:20:24.082Z,11.05
2023-04-29T10:22:56.579Z,11.14
2023-04-29T10:25:28.148Z,11.28
2023-04-29T10:27:56.984Z,10.90
2023-04-29T10:30:25.319Z,11.06
2023-04-29T10:32:53.561Z,10.71
2023-04-29T10:35:25.773Z,10.72
2023-04-29T10:37:57.389Z,10.62
2023-04-29T10:40:32.307Z,10.67
2023-04-29T10:43:01.040Z,10.53
2023-04-29T10:45:31.827Z,10.48
2023-04-29T10:48:18.932Z,10.26
2023-04-29T10:51:06.268Z,9.98
2023-04-29T10:53:35.941Z,10.29
2023-04-29T10:56:10.998Z,10.23
2023-04-29T10:58:42.654Z,10.21
2023-04-29T11:01:13.342Z,10.33
2023-04-29T11:03:58.838Z,10.30
2023-04-29T11:06:40.221Z,10.37
2023-04-29T11:09:14.650Z,10.61
2023-04-29T11:11:49.024Z,10.63
2023-04-29T11:14:22.697Z,10.45
2023-04-29T11:16:53.368Z,10.35
2023-04-29T11:19:21.865Z,10.13
2023-04-29T11:21:49.816Z,10.05
2023-04-29T11:24:19.093Z,9.95
2023-04-29T11:26:48.968Z,10.12
2023-04-29T11:29:19.576Z,10.22
2023-04-29T11:31:47.591Z,9.90
2023-04-29T11:34:15.774Z,9.97
2023-04-29T11:36:44.893Z,10.06
2023-04-29T11:39:14.308Z,9.88
2023-04-29T11:41:44.279Z,9.85
2023-04-29T11:44:13.698Z,9.80
2023-04-29T11:46:41.583Z,9.66
2023-04-29T11:49:09.664Z,9.68
2023-04-29T11:51:37.702Z,9.40
2023-04-29T11:54:08.154Z,9.22
2023-04-29T11:56:39.048Z,9.13
2023-04-29T11:59:08.960Z,9.10
2023-04-29T12:01:37.987Z,9.25
2023-04-29T12:04:07.479Z,9.19
2023-04-29T12:06:35.466Z,9.29
2023-04-29T12:09:04.645Z,9.43
2023-04-29T12:11:32.844Z,9.50
2023-04-29T12:14:03.730Z,9.00
2023-04-29T12:16:34.172Z,9.39
2023-04-29T12:19:03.120Z,9.24
2023-04-29T12:21:31.848Z,9.24
2023-04-29T12:24:01.773Z,9.19
2023-04-29T12:26:30.421Z,8.75
2023-04-29T12:28:59.909Z,8.77
2023-04-29T12:31:36.589Z,8.69
2023-04-29T12:34:07.500Z,8.82
2023-04-29T12:36:37.977Z,9.08
2023-04-29T12:39:09.966Z,9.16
2023-04-29T12:41:39.271Z,9.55
2023-04-29T12:44:08.100Z,9.22
2023-04-29T12:46:38.527Z,8.97
2023-04-29T12:49:07.116Z,9.60
2023-04-29T12:51:36.657Z,9.38
2023-04-29T12:54:07.042Z,9.13
2023-04-29T12:56:34.910Z,9.22
2023-04-29T12:59:09.972Z,9.13
2023-04-29T13:01:40.112Z,9.19
2023-04-29T13:04:09.348Z,9.30
2023-04-29T13:06:41.229Z,9.01
2023-04-29T13:09:17.949Z,8.75
2023-04-29T13:11:46.868Z,8.76
2023-04-29T13:14:14.958Z,8.63
2023-04-29T13:16:44.401Z,8.41
2023-04-29T13:19:24.724Z,8.19
2023-04-29T13:22:00.822Z,8.54
2023-04-29T13:24:28.908Z,8.29
2023-04-29T13:26:56.777Z,8.01
2023-04-29T13:29:24.785Z,8.00
2023-04-29T13:31:54.214Z,7.94
2023-04-29T13:34:22.234Z,8.00
2023-04-29T13:36:50.261Z,7.98
2023-04-29T13:39:20.367Z,7.85
2023-04-29T13:41:48.661Z,7.83
2023-04-29T13:44:27.271Z,8.00
2023-04-29T13:47:01.710Z,8.32
2023-04-29T13:49:58.590Z,8.54
2023-04-29T13:55:12.365Z,8.95
2023-04-29T14:00:25.208Z,8.95
2023-04-29T14:05:30.497Z,8.79
2023-04-29T14:07:58.630Z,9.00
2023-04-29T14:10:26.587Z,9.09
2023-04-29T14:12:54.586Z,9.13
2023-04-29T14:15:22.533Z,9.30
2023-04-29T14:17:51.547Z,9.12
2023-04-29T14:20:20.875Z,9.10
2023-04-29T14:22:48.761Z,8.87
2023-04-29T14:25:16.977Z,8.79
2023-04-29T14:27:45.061Z,8.92
2023-04-29T14:30:13.521Z,8.72
2023-04-29T14:32:41.516Z,8.71
2023-04-29T14:35:10.450Z,8.88
2023-04-29T14:37:40.067Z,9.10
2023-04-29T14:40:09.506Z,9.45
2023-04-29T14:42:37.437Z,9.54
2023-04-29T14:45:06.980Z,9.75
2023-04-29T14:47:35.011Z,9.81
2023-04-29T14:50:04.206Z,9.70
2023-04-29T14:52:33.589Z,10.02
2023-04-29T14:55:03.122Z,10.39
2023-04-29T14:57:31.409Z,10.11
2023-04-29T14:59:59.322Z,10.02
2023-04-29T15:02:27.389Z,9.41
2023-04-29T15:04:55.740Z,9.41
2023-04-29T15:07:23.920Z,9.56
2023-04-29T15:09:51.992Z,9.52
2023-04-29T15:12:22.330Z,9.42
2023-04-29T15:14:50.492Z,9.38
2023-04-29T15:17:18.701Z,9.34
2023-04-29T15:19:46.962Z,8.91
2023-04-29T15:22:14.923Z,8.84
2023-04-29T15:24:42.935Z,8.83
2023-04-29T15:27:11.149Z,8.84
2023-04-29T15:29:41.688Z,9.04
2023-04-29T15:32:10.676Z,9.04
2023-04-29T15:34:39.215Z,8.78
2023-04-29T15:37:07.368Z,8.68
2023-04-29T15:39:35.395Z,8.57
2023-04-29T15:42:03.939Z,8.44
2023-04-29T15:44:33.520Z,8.26
2023-04-29T15:47:03.283Z,8.26
2023-04-29T15:49:31.519Z,8.18
2023-04-29T15:51:59.587Z,7.89
2023-04-29T15:54:27.790Z,7.37
2023-04-29T15:56:56.784Z,6.79
2023-04-29T15:59:24.796Z,6.50
2023-04-29T16:01:53.608Z,6.17
2023-04-29T16:04:23.186Z,5.80
2023-04-29T16:06:53.308Z,5.65
2023-04-29T16:09:21.564Z,5.34
2023-04-29T16:11:49.984Z,5.11
2023-04-29T16:14:18.168Z,5.54
2023-04-29T16:16:46.391Z,5.83
2023-04-29T16:19:17.168Z,5.78
2023-04-29T16:21:46.641Z,5.97
2023-04-29T16:24:15.488Z,5.72
2023-04-29T16:26:44.020Z,5.12
2023-04-29T16:29:13.429Z,4.78
2023-04-29T16:31:41.923Z,4.56
2023-04-29T16:34:10.700Z,4.37
2023-04-29T16:36:38.860Z,3.90
2023-04-29T16:39:08.835Z,4.30
2023-04-29T16:41:37.739Z,4.47
2023-04-29T16:44:06.065Z,4.17
2023-04-29T16:46:34.920Z,4.00
2023-04-29T16:49:03.158Z,4.23
2023-04-29T16:51:33.500Z,4.46
2023-04-29T16:54:01.983Z,4.61
2023-04-29T16:56:31.537Z,4.67
2023-04-29T16:59:00.323Z,4.85
2023-04-29T17:01:29.647Z,5.03
2023-04-29T17:03:57.810Z,5.08
2023-04-29T17:06:26.326Z,5.22
2023-04-29T17:08:54.743Z,5.25
2023-04-29T17:11:22.828Z,5.01
2023-04-29T17:13:52.348Z,4.71
2023-04-29T17:16:20.782Z,4.74
2023-04-29T17:18:48.738Z,4.38
2023-04-29T17:21:16.737Z,4.27
2023-04-29T17:23:47.697Z,4.36
2023-04-29T17:26:15.672Z,4.05
2023-04-29T17:28:43.739Z,3.79
2023-04-29T17:31:13.450Z,3.63
2023-04-29T17:33:44.673Z,3.60
2023-04-29T17:36:12.755Z,3.40
2023-04-29T17:38:41.156Z,3.23
2023-04-29T17:41:09.335Z,3.01
2023-04-29T17:43:37.371Z,3.11
2023-04-29T17:46:05.412Z,2.83
2023-04-29T17:48:34.734Z,2.76
2023-04-29T17:51:02.947Z,2.65
2023-04-29T17:53:33.308Z,2.93
2023-04-29T17:56:01.351Z,3.08
2023-04-29T17:58:29.977Z,3.18
2023-04-29T18:00:57.970Z,3.39
2023-04-29T18:03:27.443Z,3.46
2023-04-29T18:05:56.968Z,3.24
2023-04-29T18:08:25.145Z,3.29
2023-04-29T18:10:53.334Z,3.11
2023-04-29T18:13:21.388Z,2.99
2023-04-29T18:15:49.577Z,2.73
2023-04-29T18:18:17.487Z,2.64
2023-04-29T18:20:46.081Z,2.96
2023-04-29T18:23:15.472Z,2.76
2023-04-29T18:25:43.845Z,2.67
2023-04-29T18:28:23.529Z,2.86
2023-04-29T18:30:53.106Z,2.91
2023-04-29T18:33:21.485Z,2.86
2023-04-29T18:35:49.518Z,2.97
2023-04-29T18:38:18.999Z,2.88
2023-04-29T18:40:49.458Z,2.65
2023-04-29T18:43:18.244Z,2.55
2023-04-29T18:45:46.327Z,2.55
2023-04-29T18:48:15.113Z,2.66
2023-04-29T18:50:43.606Z,2.52
2023-04-29T18:53:11.906Z,2.43
2023-04-29T18:55:41.377Z,2.38
2023-04-29T18:58:12.489Z,2.34
2023-04-29T19:00:40.531Z,2.48
2023-04-29T19:03:08.558Z,2.50
2023-04-29T19:05:36.705Z,2.26
2023-04-29T19:08:04.808Z,2.35
2023-04-29T19:10:32.762Z,2.31
2023-04-29T19:13:02.224Z,2.29
2023-04-29T19:15:32.087Z,2.26
2023-04-29T19:18:00.140Z,2.44
2023-04-29T19:20:28.512Z,2.31
2023-04-29T19:22:56.823Z,2.20
2023-04-29T19:25:26.056Z,2.15
2023-04-29T19:27:54.351Z,2.23
2023-04-29T19:30:23.809Z,2.36
2023-04-29T19:32:51.778Z,2.35
2023-04-29T19:35:19.803Z,2.25
2023-04-29T19:37:47.837Z,2.56
2023-04-29T19:40:15.971Z,2.66
2023-04-29T19:42:43.915Z,2.67
2023-04-29T19:45:12.816Z,2.79
2023-04-29T19:47:42.330Z,2.81
2023-04-29T19:50:11.044Z,2.80
2023-04-29T19:52:39.047Z,2.67
2023-04-29T19:55:10.169Z,2.69
2023-04-29T19:57:38.920Z,2.56
2023-04-29T20:00:09.447Z,2.57
2023-04-29T20:02:37.573Z,2.61
2023-04-29T20:05:07.513Z,2.50
2023-04-29T20:07:35.478Z,2.51
2023-04-29T20:10:03.408Z,2.41
2023-04-29T20:12:31.480Z,1.84
2023-04-29T20:15:00.652Z,2.08
2023-04-29T20:17:29.490Z,1.96
2023-04-29T20:19:57.502Z,2.26
2023-04-29T20:22:27.056Z,2.15
2023-04-29T20:24:55.153Z,2.18
2023-04-29T20:27:23.153Z,2.18
2023-04-29T20:29:51.294Z,2.14
2023-04-29T20:32:19.418Z,2.04
2023-04-29T20:34:47.668Z,2.14
2023-04-29T20:37:15.912Z,1.97
2023-04-29T20:39:48.948Z,1.80
2023-04-29T20:42:17.010Z,2.06
2023-04-29T20:44:45.225Z,1.93
2023-04-29T20:47:14.888Z,1.80
2023-04-29T20:49:43.280Z,2.08
2023-04-29T20:52:11.416Z,1.99
2023-04-29T20:54:39.600Z,1.84
2023-04-29T20:57:09.005Z,1.91
2023-04-29T20:59:37.120Z,1.83
2023-04-29T21:02:05.065Z,1.82
2023-04-29T21:04:33.177Z,1.79
2023-04-29T21:07:03.426Z,1.72
2023-04-29T21:09:35.335Z,1.47
2023-04-29T21:12:05.384Z,1.69
2023-04-29T21:14:34.982Z,1.92
2023-04-29T21:17:02.967Z,1.82
2023-04-29T21:19:31.027Z,1.91
2023-04-29T21:21:59.197Z,1.87
2023-04-29T21:24:28.704Z,1.78
2023-04-29T21:26:56.863Z,1.71
2023-04-29T21:29:24.890Z,1.67
2023-04-29T21:31:54.479Z,1.78
2023-04-29T21:34:22.854Z,1.82
2023-04-29T21:36:50.773Z,1.83
2023-04-29T21:39:19.073Z,1.81
2023-04-29T21:41:47.836Z,1.72
2023-04-29T21:44:15.984Z,1.76
2023-04-29T21:46:44.397Z,1.82
2023-04-29T21:49:13.980Z,1.93
2023-04-29T21:51:41.986Z,1.88
2023-04-29T21:54:10.271Z,2.03
2023-04-29T21:56:38.216Z,2.18
2023-04-29T21:59:06.233Z,2.24
2023-04-29T22:01:49.689Z,2.36
2023-04-29T22:04:19.760Z,2.38
2023-04-29T22:06:47.874Z,2.31
2023-04-29T22:09:16.233Z,2.35
2023-04-29T22:11:44.201Z,2.51
2023-04-29T22:14:12.303Z,2.54
2023-04-29T22:16:40.668Z,2.65
2023-04-29T22:19:08.762Z,2.72
2023-04-29T22:21:40.759Z,2.59
2023-04-29T22:24:09.343Z,2.61
2023-04-29T22:26:37.324Z,2.63
2023-04-29T22:29:05.641Z,2.54
2023-04-29T22:31:33.755Z,2.71
2023-04-29T22:34:01.889Z,2.83
2023-04-29T22:36:31.290Z,2.73
2023-04-29T22:39:01.381Z,2.83
2023-04-29T22:41:29.403Z,2.73
2023-04-29T22:43:57.856Z,2.86
2023-04-29T22:46:26.052Z,2.92
2023-04-29T22:48:54.243Z,2.84
2023-04-29T22:51:22.229Z,2.86
2023-04-29T22:53:50.412Z,2.70
2023-04-29T22:56:19.910Z,2.81
2023-04-29T22:58:47.817Z,2.82
2023-04-29T23:01:15.912Z,2.83
2023-04-29T23:03:43.917Z,2.81
2023-04-29T23:06:11.895Z,2.84
2023-04-29T23:08:40.231Z,2.83
2023-04-29T23:11:08.319Z,2.82
2023-04-29T23:13:37.680Z,2.71
2023-04-29T23:16:07.076Z,2.98
2023-04-29T23:18:36.018Z,2.99
2023-04-29T23:21:03.979Z,2.90
2023-04-29T23:23:32.042Z,2.91
2023-04-29T23:26:02.507Z,2.87
2023-04-29T23:28:30.292Z,2.90
2023-04-29T23:30:59.810Z,2.91
2023-04-29T23:33:28.106Z,2.91
2023-04-29T23:35:56.036Z,2.80
2023-04-29T23:38:24.171Z,2.93
2023-04-29T23:40:52.469Z,2.97
2023-04-29T23:43:21.591Z,2.95
2023-04-29T23:45:52.994Z,2.96
2023-04-29T23:48:22.554Z,3.02
2023-04-29T23:50:50.612Z,2.95
2023-04-29T23:53:18.763Z,2.95
2023-04-29T23:55:46.766Z,2.96
2023-04-29T23:58:14.953Z,2.88
